createdAt,value
2022-10-20T00:00:12.435Z,9.28
2022-10-20T00:05:13.306Z,9.17
2022-10-20T00:10:14.185Z,9.12
2022-10-20T00:15:15.029Z,9.10
2022-10-20T00:20:15.987Z,8.98
2022-10-20T00:25:16.931Z,8.94
2022-10-20T00:30:19.522Z,8.87
2022-10-20T00:35:22.293Z,8.81
2022-10-20T00:40:24.055Z,8.84
2022-10-20T00:45:25.651Z,8.77
2022-10-20T00:50:40.963Z,8.74
2022-10-20T00:55:46.024Z,8.73
2022-10-20T01:00:52.670Z,8.61
2022-10-20T01:05:53.416Z,8.64
2022-10-20T01:12:36.579Z,8.64
2022-10-20T01:18:12.562Z,8.57
2022-10-20T01:26:59.082Z,8.54
2022-10-20T01:33:40.970Z,8.44
2022-10-20T01:38:48.208Z,8.42
2022-10-20T01:43:50.423Z,8.37
2022-10-20T01:48:52.985Z,8.41
2022-10-20T01:53:53.926Z,8.41
2022-10-20T01:59:33.478Z,8.32
2022-10-20T02:05:00.949Z,8.45
2022-10-20T02:10:17.797Z,8.40
2022-10-20T02:15:23.466Z,8.39
2022-10-20T02:20:24.543Z,8.27
2022-10-20T02:25:27.321Z,8.18
2022-10-20T02:30:29.278Z,8.23
2022-10-20T02:35:31.467Z,8.08
2022-10-20T02:40:32.449Z,8.03
2022-10-20T02:45:33.206Z,8.00
2022-10-20T02:50:35.234Z,8.12
2022-10-20T02:55:36.062Z,8.06
2022-10-20T03:00:37.140Z,7.96
2022-10-20T03:05:40.991Z,7.95
2022-10-20T03:10:42.125Z,7.85
2022-10-20T03:15:43.102Z,7.78
2022-10-20T03:20:43.953Z,7.74
2022-10-20T03:25:45.005Z,7.73
2022-10-20T03:30:46.352Z,7.71
2022-10-20T03:35:47.243Z,7.70
2022-10-20T03:40:48.001Z,7.54
2022-10-20T03:45:48.748Z,7.53
2022-10-20T03:50:49.497Z,7.49
2022-10-20T03:55:50.379Z,7.64
2022-10-20T04:00:51.357Z,7.47
2022-10-20T04:05:52.408Z,7.43
2022-10-20T04:10:53.128Z,7.42
2022-10-20T04:15:54.024Z,7.58
2022-10-20T04:20:54.759Z,7.46
2022-10-20T04:25:55.583Z,7.41
2022-10-20T04:30:59.447Z,7.53
2022-10-20T04:36:06.454Z,7.46
2022-10-20T04:41:07.389Z,7.55
2022-10-20T04:46:09.999Z,7.55
2022-10-20T04:51:13.631Z,7.45
2022-10-20T04:56:21.082Z,7.44
2022-10-20T05:01:24.388Z,7.32
2022-10-20T05:06:31.148Z,7.39
2022-10-20T05:11:35.348Z,7.45
2022-10-20T05:16:36.129Z,7.35
2022-10-20T05:21:36.946Z,7.38
2022-10-20T05:26:38.201Z,7.24
2022-10-20T05:31:41.199Z,7.37
2022-10-20T05:36:41.960Z,7.30
2022-10-20T05:41:42.716Z,7.21
2022-10-20T05:46:43.453Z,7.24
2022-10-20T05:51:45.872Z,7.23
2022-10-20T05:56:46.872Z,7.23
2022-10-20T06:01:48.156Z,7.19
2022-10-20T06:06:53.698Z,7.16
2022-10-20T06:11:54.547Z,7.22
2022-10-20T06:16:56.162Z,7.26
2022-10-20T06:21:56.950Z,7.39
2022-10-20T06:26:57.875Z,7.30
2022-10-20T06:31:58.644Z,7.37
2022-10-20T06:36:59.872Z,7.36
2022-10-20T06:42:02.968Z,7.43
2022-10-20T06:47:09.374Z,7.49
2022-10-20T06:57:11.963Z,7.61
2022-10-20T07:02:12.898Z,7.74
2022-10-20T07:07:13.657Z,7.85
2022-10-20T07:12:14.809Z,7.79
2022-10-20T07:17:15.553Z,7.80
2022-10-20T07:22:16.323Z,7.89
2022-10-20T07:27:17.164Z,8.07
2022-10-20T07:32:17.959Z,8.01
2022-10-20T07:37:18.720Z,8.09
2022-10-20T07:42:19.496Z,8.08
2022-10-20T07:47:20.258Z,8.06
2022-10-20T07:52:21.018Z,8.18
2022-10-20T07:57:28.187Z,8.26
2022-10-20T08:02:29.023Z,8.41
2022-10-20T08:07:29.781Z,8.21
2022-10-20T08:12:30.859Z,8.29
2022-10-20T08:17:31.651Z,8.48
2022-10-20T08:22:32.442Z,8.38
2022-10-20T08:27:33.402Z,8.39
2022-10-20T08:32:34.547Z,8.69
2022-10-20T08:37:36.395Z,8.65
2022-10-20T08:42:44.466Z,8.57
2022-10-20T08:47:48.411Z,8.78
2022-10-20T08:52:53.871Z,8.71
2022-10-20T08:58:05.134Z,8.73
2022-10-20T09:03:23.941Z,8.51
2022-10-20T09:08:27.617Z,8.70
2022-10-20T09:13:32.073Z,8.98
2022-10-20T09:18:34.187Z,8.97
2022-10-20T09:23:42.166Z,9.02
2022-10-20T09:29:12.009Z,9.32
2022-10-20T09:34:39.276Z,9.40
2022-10-20T09:39:57.778Z,9.28
2022-10-20T09:46:05.889Z,9.24
2022-10-20T09:51:18.133Z,9.27
2022-10-20T09:56:44.069Z,9.26
2022-10-20T10:02:00.430Z,9.45
2022-10-20T10:07:02.746Z,9.21
2022-10-20T10:12:37.629Z,9.21
2022-10-20T10:17:42.925Z,9.26
2022-10-20T10:22:44.388Z,9.32
2022-10-20T10:28:08.677Z,9.47
2022-10-20T10:33:26.402Z,9.63
2022-10-20T10:38:28.249Z,9.61
2022-10-20T10:46:07.931Z,9.64
2022-10-20T10:52:50.803Z,9.68
2022-10-20T10:58:17.824Z,9.77
2022-10-20T11:06:04.071Z,10.00
2022-10-20T11:14:46.278Z,9.88
2022-10-20T11:20:33.715Z,10.00
2022-10-20T11:25:51.055Z,10.01
2022-10-20T11:30:52.092Z,10.09
2022-10-20T11:36:08.443Z,10.03
2022-10-20T11:41:18.252Z,10.00
2022-10-20T11:46:33.200Z,9.96
2022-10-20T11:53:15.530Z,10.03
2022-10-20T11:58:59.165Z,10.19
2022-10-20T12:05:10.347Z,10.09
2022-10-20T12:10:48.921Z,10.23
2022-10-20T12:15:52.206Z,10.38
2022-10-20T12:21:16.072Z,10.33
2022-10-20T12:30:00.838Z,10.28
2022-10-20T12:35:27.035Z,10.37
2022-10-20T12:40:31.880Z,10.33
2022-10-20T12:45:43.593Z,10.34
2022-10-20T12:50:47.126Z,10.32
2022-10-20T12:56:12.128Z,10.37
2022-10-20T13:01:13.205Z,10.35
2022-10-20T13:07:59.007Z,10.54
2022-10-20T13:13:49.642Z,10.60
2022-10-20T13:18:52.639Z,10.64
2022-10-20T13:24:02.571Z,10.58
2022-10-20T13:29:11.795Z,10.60
2022-10-20T13:34:33.087Z,10.65
2022-10-20T13:40:01.352Z,10.52
2022-10-20T13:45:12.241Z,10.63
2022-10-20T13:55:27.685Z,10.68
2022-10-20T14:00:30.848Z,10.51
2022-10-20T14:05:38.523Z,10.55
2022-10-20T14:10:54.985Z,10.62
2022-10-20T14:15:58.402Z,10.64
2022-10-20T14:21:21.259Z,10.61
2022-10-20T14:26:24.669Z,10.60
2022-10-20T14:31:25.477Z,10.63
2022-10-20T14:36:28.434Z,10.62
2022-10-20T14:41:35.792Z,10.66
2022-10-20T14:46:44.373Z,10.63
2022-10-20T14:52:00.872Z,10.63
2022-10-20T14:57:29.813Z,10.77
2022-10-20T15:02:40.534Z,10.78
2022-10-20T15:07:41.569Z,10.74
2022-10-20T15:12:45.115Z,10.56
2022-10-20T15:21:19.615Z,10.45
2022-10-20T15:26:20.351Z,10.58
2022-10-20T15:31:27.776Z,10.39
2022-10-20T15:36:39.078Z,10.46
2022-10-20T15:41:42.988Z,10.49
2022-10-20T15:46:47.169Z,10.42
2022-10-20T15:51:49.819Z,10.42
2022-10-20T15:56:50.631Z,10.49
2022-10-20T16:01:51.406Z,10.50
2022-10-20T16:06:57.779Z,10.52
2022-10-20T16:12:00.069Z,10.38
2022-10-20T16:17:01.088Z,10.48
2022-10-20T16:22:01.975Z,10.52
2022-10-20T16:27:11.024Z,10.49
2022-10-20T16:32:12.565Z,10.62
2022-10-20T16:37:13.950Z,10.47
2022-10-20T16:42:14.682Z,10.51
2022-10-20T16:47:15.496Z,10.49
2022-10-20T16:52:16.606Z,10.46
2022-10-20T16:57:17.393Z,10.57
2022-10-20T17:02:18.650Z,10.61
2022-10-20T17:07:19.498Z,10.35
2022-10-20T17:12:20.718Z,10.28
2022-10-20T17:17:21.482Z,10.28
2022-10-20T17:22:22.409Z,10.28
2022-10-20T17:27:23.175Z,10.20
2022-10-20T17:32:23.944Z,10.19
2022-10-20T17:37:24.978Z,10.30
2022-10-20T17:42:25.703Z,10.34
2022-10-20T17:47:26.511Z,10.47
2022-10-20T17:52:28.587Z,10.42
2022-10-20T17:57:30.105Z,10.37
2022-10-20T18:02:30.888Z,10.43
2022-10-20T18:07:31.824Z,10.43
2022-10-20T18:12:32.595Z,10.51
2022-10-20T18:17:34.671Z,10.38
2022-10-20T18:22:36.017Z,10.50
2022-10-20T18:27:37.083Z,10.57
2022-10-20T18:32:38.154Z,10.36
2022-10-20T18:37:40.723Z,10.33
2022-10-20T18:42:41.504Z,10.43
2022-10-20T18:47:44.309Z,10.45
2022-10-20T18:52:45.305Z,10.43
2022-10-20T18:57:46.352Z,10.45
2022-10-20T19:02:51.778Z,10.40
2022-10-20T19:07:52.555Z,10.43
2022-10-20T19:12:53.494Z,10.42
2022-10-20T19:17:57.026Z,10.51
2022-10-20T19:23:01.621Z,10.51
2022-10-20T19:28:02.461Z,10.49
2022-10-20T19:33:03.930Z,10.56
2022-10-20T19:38:04.928Z,10.58
2022-10-20T19:43:06.237Z,10.66
2022-10-20T19:48:06.995Z,10.70
2022-10-20T19:53:07.945Z,10.71
2022-10-20T20:03:11.024Z,10.78
2022-10-20T20:08:11.822Z,10.87
2022-10-20T20:13:12.596Z,10.92
2022-10-20T20:18:14.174Z,10.86
2022-10-20T20:23:15.865Z,10.82
2022-10-20T20:28:16.657Z,10.83
2022-10-20T20:33:17.501Z,10.80
2022-10-20T20:38:18.262Z,10.78
2022-10-20T20:43:19.948Z,10.74
2022-10-20T20:48:20.679Z,10.85
2022-10-20T20:53:21.981Z,10.94
2022-10-20T20:58:24.138Z,10.93
2022-10-20T21:03:24.879Z,10.93
2022-10-20T21:08:25.651Z,10.93
2022-10-20T21:13:26.391Z,10.90
2022-10-20T21:18:27.139Z,11.06
2022-10-20T21:23:28.050Z,10.92
2022-10-20T21:28:28.882Z,10.98
2022-10-20T21:33:30.217Z,10.87
2022-10-20T21:38:32.688Z,10.98
2022-10-20T21:43:34.759Z,11.06
2022-10-20T21:53:36.904Z,11.08
2022-10-20T21:58:38.659Z,11.11
2022-10-20T22:03:41.683Z,11.09
2022-10-20T22:08:45.032Z,11.05
2022-10-20T22:13:47.284Z,11.02
2022-10-20T22:18:48.035Z,10.99
2022-10-20T22:23:52.966Z,11.03
2022-10-20T22:28:54.171Z,11.06
2022-10-20T22:33:56.906Z,11.11
2022-10-20T22:38:57.834Z,11.21
2022-10-20T22:43:58.764Z,11.19
2022-10-20T22:48:59.595Z,11.02
2022-10-20T22:54:01.416Z,11.05
2022-10-20T22:59:02.207Z,11.03
2022-10-20T23:04:03.021Z,11.04
2022-10-20T23:09:03.792Z,11.05
2022-10-20T23:14:04.734Z,11.12
2022-10-20T23:19:05.457Z,11.19
2022-10-20T23:24:06.451Z,11.19
2022-10-20T23:29:07.256Z,11.37
2022-10-20T23:34:08.245Z,11.53
2022-10-20T23:39:09.281Z,11.67
2022-10-20T23:44:10.230Z,11.69
2022-10-20T23:49:10.959Z,11.77
2022-10-20T23:54:12.035Z,11.73
2022-10-20T23:59:13.178Z,11.79
